createdAt,value
2022-10-01T00:00:35.454Z,4.70
2022-10-01T00:01:35.828Z,4.67
2022-10-01T00:02:35.500Z,4.73
2022-10-01T00:03:35.452Z,4.77
2022-10-01T00:04:35.427Z,4.70
2022-10-01T00:05:35.414Z,4.71
2022-10-01T00:06:35.408Z,4.71
2022-10-01T00:07:35.400Z,4.67
2022-10-01T00:08:35.422Z,4.77
2022-10-01T00:09:35.385Z,4.74
2022-10-01T00:10:35.373Z,4.78
2022-10-01T00:11:35.750Z,4.82
2022-10-01T00:12:35.361Z,4.70
2022-10-01T00:13:35.379Z,4.84
2022-10-01T00:14:35.350Z,4.77
2022-10-01T00:15:35.341Z,4.84
2022-10-01T00:16:35.385Z,4.75
2022-10-01T00:17:35.325Z,4.77
2022-10-01T00:18:35.345Z,4.75
2022-10-01T00:19:35.314Z,4.82
2022-10-01T00:20:35.305Z,4.73
2022-10-01T00:21:35.600Z,4.67
2022-10-01T00:22:35.283Z,4.66
2022-10-01T00:23:35.301Z,4.75
2022-10-01T00:24:35.267Z,4.73
2022-10-01T00:25:35.259Z,4.84
2022-10-01T00:26:35.250Z,4.84
2022-10-01T00:27:35.246Z,4.82
2022-10-01T00:28:35.259Z,4.86
2022-10-01T00:29:35.226Z,4.78
2022-10-01T00:30:39.627Z,4.77
2022-10-01T00:31:37.748Z,4.82
2022-10-01T00:32:35.204Z,4.74
2022-10-01T00:33:35.221Z,4.74
2022-10-01T00:34:35.191Z,4.73
2022-10-01T00:35:35.190Z,4.73
2022-10-01T00:36:35.174Z,4.78
2022-10-01T00:37:35.155Z,4.87
2022-10-01T00:38:36.180Z,4.75
2022-10-01T00:39:35.151Z,4.86
2022-10-01T00:40:35.141Z,4.92
2022-10-01T00:41:35.489Z,4.86
2022-10-01T00:42:35.125Z,4.77
2022-10-01T00:43:35.145Z,4.86
2022-10-01T00:44:35.114Z,4.80
2022-10-01T00:45:35.156Z,4.93
2022-10-01T00:46:35.093Z,4.82
2022-10-01T00:47:36.087Z,4.94
2022-10-01T00:48:35.102Z,4.87
2022-10-01T00:49:35.060Z,4.92
2022-10-01T00:50:36.064Z,4.90
2022-10-01T00:51:35.432Z,4.96
2022-10-01T00:52:35.046Z,4.94
2022-10-01T00:53:35.073Z,4.93
2022-10-01T00:54:35.031Z,4.90
2022-10-01T00:55:35.025Z,4.99
2022-10-01T00:56:35.016Z,4.89
2022-10-01T00:57:35.011Z,4.90
2022-10-01T00:58:35.028Z,4.90
2022-10-01T00:59:34.994Z,5.04
2022-10-01T01:00:34.982Z,4.92
2022-10-01T01:01:35.318Z,4.96
2022-10-01T01:02:35.033Z,4.93
2022-10-01T01:03:34.960Z,4.97
2022-10-01T01:04:34.975Z,4.99
2022-10-01T01:05:34.944Z,4.94
2022-10-01T01:06:34.936Z,4.96
2022-10-01T01:07:34.929Z,5.05
2022-10-01T01:08:34.921Z,5.07
2022-10-01T01:09:34.938Z,5.07
2022-10-01T01:10:34.907Z,5.05
2022-10-01T01:11:35.250Z,5.07
2022-10-01T01:12:34.892Z,5.02
2022-10-01T01:13:34.885Z,5.10
2022-10-01T01:14:34.897Z,5.02
2022-10-01T01:15:34.907Z,5.10
2022-10-01T01:16:34.861Z,5.08
2022-10-01T01:17:34.853Z,5.15
2022-10-01T01:18:34.871Z,5.15
2022-10-01T01:19:34.837Z,5.15
2022-10-01T01:20:34.827Z,5.21
2022-10-01T01:21:35.130Z,5.25
2022-10-01T01:22:34.813Z,5.28
2022-10-01T01:23:34.825Z,5.26
2022-10-01T01:24:34.796Z,5.25
2022-10-01T01:25:34.782Z,5.29
2022-10-01T01:26:34.775Z,5.25
2022-10-01T01:27:34.767Z,5.33
2022-10-01T01:28:34.784Z,5.26
2022-10-01T01:29:34.753Z,5.33
2022-10-01T01:30:34.745Z,5.38
2022-10-01T01:31:35.023Z,5.43
2022-10-01T01:32:34.740Z,5.30
2022-10-01T01:33:34.750Z,5.38
2022-10-01T01:34:34.714Z,5.39
2022-10-01T01:35:34.708Z,5.41
2022-10-01T01:36:34.695Z,5.35
2022-10-01T01:37:34.706Z,5.41
2022-10-01T01:38:34.708Z,5.47
2022-10-01T01:39:34.677Z,5.50
2022-10-01T01:40:34.668Z,5.39
2022-10-01T01:41:34.988Z,5.48
2022-10-01T01:42:34.652Z,5.47
2022-10-01T01:43:34.664Z,5.46
2022-10-01T01:44:34.636Z,5.46
2022-10-01T01:45:34.638Z,5.46
2022-10-01T01:46:35.618Z,5.54
2022-10-01T01:47:34.618Z,5.50
2022-10-01T01:48:34.626Z,5.61
2022-10-01T01:49:34.592Z,5.50
2022-10-01T01:50:34.587Z,5.53
2022-10-01T01:51:34.730Z,5.65
2022-10-01T01:52:34.572Z,5.57
2022-10-01T01:53:34.593Z,5.61
2022-10-01T01:54:34.555Z,5.64
2022-10-01T01:55:34.546Z,5.68
2022-10-01T01:56:34.541Z,5.68
2022-10-01T01:57:34.530Z,5.72
2022-10-01T01:58:34.573Z,5.66
2022-10-01T01:59:34.517Z,5.73
2022-10-01T02:00:34.510Z,5.73
2022-10-01T02:01:34.892Z,5.76
2022-10-01T02:02:34.512Z,5.75
2022-10-01T02:03:34.490Z,5.71
2022-10-01T02:04:34.497Z,5.87
2022-10-01T02:05:34.458Z,5.73
2022-10-01T02:06:35.459Z,5.80
2022-10-01T02:07:34.451Z,5.89
2022-10-01T02:08:34.441Z,5.94
2022-10-01T02:09:34.450Z,5.93
2022-10-01T02:10:35.426Z,5.84
2022-10-01T02:11:34.664Z,6.01
2022-10-01T02:12:34.403Z,5.97
2022-10-01T02:13:35.407Z,6.08
2022-10-01T02:14:34.426Z,6.07
2022-10-01T02:15:34.404Z,6.12
2022-10-01T02:16:34.388Z,6.04
2022-10-01T02:17:34.383Z,6.07
2022-10-01T02:18:34.368Z,6.09
2022-10-01T02:19:34.387Z,6.07
2022-10-01T02:20:34.354Z,6.07
2022-10-01T02:21:34.739Z,6.24
2022-10-01T02:22:34.336Z,6.28
2022-10-01T02:23:34.327Z,6.36
2022-10-01T02:24:34.348Z,6.28
2022-10-01T02:25:34.314Z,6.35
2022-10-01T02:26:34.331Z,6.46
2022-10-01T02:27:34.292Z,6.48
2022-10-01T02:28:34.283Z,6.44
2022-10-01T02:29:34.305Z,6.46
2022-10-01T02:30:34.269Z,6.49
2022-10-01T02:31:34.529Z,6.56
2022-10-01T02:32:34.253Z,6.51
2022-10-01T02:33:34.247Z,6.59
2022-10-01T02:34:34.260Z,6.56
2022-10-01T02:35:34.225Z,6.63
2022-10-01T02:36:34.220Z,6.60
2022-10-01T02:37:34.212Z,6.56
2022-10-01T02:38:34.205Z,6.57
2022-10-01T02:39:34.222Z,6.64
2022-10-01T02:40:34.188Z,6.57
2022-10-01T02:41:34.444Z,6.64
2022-10-01T02:42:34.237Z,6.64
2022-10-01T02:43:34.167Z,6.57
2022-10-01T02:44:34.177Z,6.69
2022-10-01T02:45:34.206Z,6.74
2022-10-01T02:46:34.126Z,6.77
2022-10-01T02:47:35.133Z,6.66
2022-10-01T02:48:34.124Z,6.67
2022-10-01T02:49:34.138Z,6.79
2022-10-01T02:50:34.106Z,6.78
2022-10-01T02:51:34.311Z,6.69
2022-10-01T02:52:34.087Z,6.72
2022-10-01T02:53:34.082Z,6.75
2022-10-01T02:54:34.105Z,6.72
2022-10-01T02:55:34.066Z,6.77
2022-10-01T02:56:34.058Z,6.78
2022-10-01T02:57:34.053Z,6.70
2022-10-01T02:58:34.042Z,6.85
2022-10-01T02:59:34.060Z,6.78
2022-10-01T03:00:34.024Z,6.84
2022-10-01T03:01:34.265Z,6.72
2022-10-01T03:02:34.050Z,6.81
2022-10-01T03:03:34.010Z,6.82
2022-10-01T03:04:33.988Z,6.87
2022-10-01T03:05:34.009Z,6.78
2022-10-01T03:06:33.980Z,6.82
2022-10-01T03:07:33.968Z,6.87
2022-10-01T03:08:33.957Z,6.78
2022-10-01T03:09:34.954Z,7.02
2022-10-01T03:10:33.971Z,6.92
2022-10-01T03:11:34.154Z,6.96
2022-10-01T03:12:33.934Z,7.03
2022-10-01T03:13:33.915Z,7.15
2022-10-01T03:14:34.941Z,7.21
2022-10-01T03:15:33.978Z,7.33
2022-10-01T03:16:33.900Z,7.36
2022-10-01T03:17:33.896Z,7.54
2022-10-01T03:18:33.883Z,7.60
2022-10-01T03:19:33.909Z,7.76
2022-10-01T03:20:33.873Z,7.82
2022-10-01T03:21:34.097Z,7.80
2022-10-01T03:22:33.856Z,7.87
2022-10-01T03:23:33.849Z,8.05
2022-10-01T03:24:33.867Z,8.12
2022-10-01T03:25:33.833Z,8.13
2022-10-01T03:26:33.830Z,8.08
2022-10-01T03:27:33.821Z,8.23
2022-10-01T03:28:33.813Z,8.24
2022-10-01T03:29:33.833Z,8.27
2022-10-01T03:30:33.799Z,8.34
2022-10-01T03:31:34.108Z,8.34
2022-10-01T03:32:33.786Z,8.30
2022-10-01T03:33:33.773Z,8.41
2022-10-01T03:34:33.798Z,8.36
2022-10-01T03:35:33.758Z,8.49
2022-10-01T03:36:33.752Z,8.48
2022-10-01T03:37:33.739Z,8.58
2022-10-01T03:38:33.733Z,8.63
2022-10-01T03:39:33.749Z,8.67
2022-10-01T03:40:33.719Z,8.63
2022-10-01T03:41:34.033Z,8.73
2022-10-01T03:42:33.702Z,8.71
2022-10-01T03:43:33.696Z,8.69
2022-10-01T03:44:33.717Z,8.70
2022-10-01T03:45:33.703Z,8.81
2022-10-01T03:46:33.670Z,8.89
2022-10-01T03:47:33.666Z,8.81
2022-10-01T03:48:33.652Z,8.81
2022-10-01T03:49:33.680Z,8.99
2022-10-01T03:50:33.652Z,9.00
2022-10-01T03:51:34.035Z,8.99
2022-10-01T03:52:33.624Z,9.03
2022-10-01T03:53:33.613Z,9.16
2022-10-01T03:54:33.613Z,9.14
2022-10-01T03:55:33.631Z,9.21
2022-10-01T03:56:33.597Z,9.25
2022-10-01T03:57:33.595Z,9.26
2022-10-01T03:58:33.582Z,9.36
2022-10-01T03:59:33.569Z,9.40
2022-10-01T04:00:33.588Z,9.44
2022-10-01T04:01:33.840Z,9.50
2022-10-01T04:02:33.657Z,9.46
2022-10-01T04:03:33.538Z,9.41
2022-10-01T04:04:33.529Z,9.50
2022-10-01T04:05:33.545Z,9.54
2022-10-01T04:06:33.516Z,9.51
2022-10-01T04:07:33.507Z,9.56
2022-10-01T04:08:33.498Z,9.58
2022-10-01T04:09:33.487Z,9.61
2022-10-01T04:10:33.506Z,9.61
2022-10-01T04:11:33.788Z,9.68
2022-10-01T04:12:33.463Z,9.66
2022-10-01T04:13:33.457Z,9.64
2022-10-01T04:14:33.450Z,9.76
2022-10-01T04:15:33.476Z,9.89
2022-10-01T04:16:33.463Z,9.80
2022-10-01T04:17:33.427Z,9.80
2022-10-01T04:18:33.414Z,9.76
2022-10-01T04:19:33.406Z,9.82
2022-10-01T04:20:33.426Z,9.83
2022-10-01T04:21:33.706Z,9.87
2022-10-01T04:22:33.384Z,10.01
2022-10-01T04:23:33.375Z,10.04
2022-10-01T04:24:33.370Z,9.89
2022-10-01T04:25:33.382Z,9.99
2022-10-01T04:26:33.352Z,10.07
2022-10-01T04:27:33.346Z,10.04
2022-10-01T04:28:33.333Z,10.02
2022-10-01T04:29:36.822Z,10.01
2022-10-01T04:30:35.345Z,10.05
2022-10-01T04:31:33.681Z,10.25
2022-10-01T04:32:33.307Z,10.17
2022-10-01T04:33:33.306Z,10.26
2022-10-01T04:34:33.300Z,10.10
2022-10-01T04:35:33.313Z,10.22
2022-10-01T04:36:33.284Z,10.20
2022-10-01T04:37:33.269Z,10.23
2022-10-01T04:38:33.265Z,10.26
2022-10-01T04:39:33.253Z,10.31
2022-10-01T04:40:33.273Z,10.33
2022-10-01T04:41:33.745Z,10.35
2022-10-01T04:42:33.226Z,10.34
2022-10-01T04:43:33.219Z,10.26
2022-10-01T04:44:33.207Z,10.25
2022-10-01T04:45:33.225Z,10.33
2022-10-01T04:46:33.207Z,10.30
2022-10-01T04:47:37.388Z,10.26
2022-10-01T04:48:34.185Z,10.35
2022-10-01T04:49:33.181Z,10.34
2022-10-01T04:50:33.192Z,10.35
2022-10-01T04:51:33.333Z,10.30
2022-10-01T04:52:33.152Z,10.33
2022-10-01T04:53:33.141Z,10.38
2022-10-01T04:54:33.137Z,10.37
2022-10-01T04:55:33.160Z,10.40
2022-10-01T04:56:33.117Z,10.26
2022-10-01T04:57:33.112Z,10.35
2022-10-01T04:58:33.103Z,10.30
2022-10-01T04:59:33.094Z,10.34
2022-10-01T05:00:33.173Z,10.44
2022-10-01T05:01:33.353Z,10.40
2022-10-01T05:02:33.089Z,10.38
2022-10-01T05:03:33.063Z,10.34
2022-10-01T05:04:33.052Z,10.37
2022-10-01T05:05:33.066Z,10.28
2022-10-01T05:06:33.064Z,10.23
2022-10-01T05:07:33.028Z,10.28
2022-10-01T05:08:33.017Z,10.26
2022-10-01T05:09:33.003Z,10.23
2022-10-01T05:10:34.008Z,10.23
2022-10-01T05:11:33.288Z,10.30
2022-10-01T05:12:32.988Z,10.23
2022-10-01T05:13:32.983Z,10.23
2022-10-01T05:14:32.994Z,10.19
2022-10-01T05:15:32.965Z,10.19
2022-10-01T05:16:33.064Z,10.17
2022-10-01T05:17:32.965Z,10.23
2022-10-01T05:18:32.948Z,10.26
2022-10-01T05:19:32.937Z,10.16
2022-10-01T05:20:32.930Z,10.16
2022-10-01T05:21:33.230Z,10.19
2022-10-01T05:22:32.918Z,10.04
2022-10-01T05:23:32.903Z,10.04
2022-10-01T05:24:32.897Z,10.23
2022-10-01T05:25:32.892Z,10.15
2022-10-01T05:26:32.908Z,10.12
2022-10-01T05:27:32.877Z,10.16
2022-10-01T05:28:32.922Z,10.07
2022-10-01T05:29:32.859Z,10.05
2022-10-01T05:30:32.852Z,10.09
2022-10-01T05:31:33.397Z,10.13
2022-10-01T05:32:33.807Z,10.09
2022-10-01T05:33:32.828Z,10.09
2022-10-01T05:34:32.821Z,10.09
2022-10-01T05:35:32.810Z,10.10
2022-10-01T05:36:32.830Z,10.01
2022-10-01T05:37:32.799Z,10.13
2022-10-01T05:38:32.786Z,10.02
2022-10-01T05:39:32.778Z,10.02
2022-10-01T05:40:32.773Z,10.15
2022-10-01T05:41:33.166Z,10.12
2022-10-01T05:42:32.755Z,10.12
2022-10-01T05:43:32.756Z,10.15
2022-10-01T05:44:32.740Z,10.02
2022-10-01T05:45:32.821Z,10.10
2022-10-01T05:46:32.759Z,10.17
2022-10-01T05:47:32.716Z,10.15
2022-10-01T05:48:32.704Z,10.04
2022-10-01T05:49:32.698Z,10.09
2022-10-01T05:50:32.685Z,10.13
2022-10-01T05:51:33.011Z,10.10
2022-10-01T05:52:32.674Z,10.12
2022-10-01T05:53:32.664Z,10.01
2022-10-01T05:54:32.656Z,10.07
2022-10-01T05:55:32.650Z,10.16
2022-10-01T05:56:32.639Z,10.12
2022-10-01T05:57:32.658Z,10.09
2022-10-01T05:58:32.624Z,10.12
2022-10-01T05:59:32.613Z,10.01
2022-10-01T06:00:32.643Z,10.07
2022-10-01T06:01:32.924Z,10.10
2022-10-01T06:02:32.625Z,10.09
2022-10-01T06:03:32.587Z,10.09
2022-10-01T06:04:34.033Z,10.05
2022-10-01T06:05:32.566Z,10.13
2022-10-01T06:06:32.564Z,10.04
2022-10-01T06:07:32.580Z,10.07
2022-10-01T06:08:32.547Z,10.07
2022-10-01T06:09:32.544Z,10.02
2022-10-01T06:10:32.533Z,10.09
2022-10-01T06:11:32.855Z,10.20
2022-10-01T06:12:32.549Z,10.16
2022-10-01T06:13:32.515Z,10.28
2022-10-01T06:14:32.500Z,10.16
2022-10-01T06:15:32.494Z,10.07
2022-10-01T06:16:32.510Z,10.17
2022-10-01T06:17:32.503Z,10.25
2022-10-01T06:18:32.483Z,10.17
2022-10-01T06:19:32.463Z,10.10
2022-10-01T06:20:32.454Z,10.15
2022-10-01T06:21:32.789Z,10.19
2022-10-01T06:22:32.464Z,10.15
2022-10-01T06:23:32.435Z,10.22
2022-10-01T06:24:32.429Z,10.19
2022-10-01T06:25:32.415Z,10.23
2022-10-01T06:26:32.418Z,10.22
2022-10-01T06:27:32.426Z,10.26
2022-10-01T06:28:32.433Z,10.34
2022-10-01T06:29:32.385Z,10.31
2022-10-01T06:30:32.379Z,10.19
2022-10-01T06:31:32.807Z,10.17
2022-10-01T06:32:34.956Z,10.25
2022-10-01T06:33:33.360Z,10.31
2022-10-01T06:34:32.353Z,10.30
2022-10-01T06:35:32.338Z,10.28
2022-10-01T06:36:32.332Z,10.28
2022-10-01T06:37:32.356Z,10.26
2022-10-01T06:38:32.319Z,10.40
2022-10-01T06:39:32.311Z,10.37
2022-10-01T06:40:32.322Z,10.22
2022-10-01T06:41:32.594Z,10.28
2022-10-01T06:42:32.315Z,10.25
2022-10-01T06:43:32.284Z,10.30
2022-10-01T06:44:32.270Z,10.33
2022-10-01T06:45:32.300Z,10.37
2022-10-01T06:46:32.255Z,10.37
2022-10-01T06:47:32.277Z,10.33
2022-10-01T06:48:32.242Z,10.30
2022-10-01T06:49:32.227Z,10.23
2022-10-01T06:50:32.220Z,10.37
2022-10-01T06:51:32.530Z,10.28
2022-10-01T06:52:32.234Z,10.28
2022-10-01T06:53:32.199Z,10.41
2022-10-01T06:54:32.190Z,10.42
2022-10-01T06:55:32.181Z,10.40
2022-10-01T06:56:32.174Z,10.38
2022-10-01T06:57:32.189Z,10.40
2022-10-01T06:58:32.155Z,10.38
2022-10-01T06:59:32.147Z,10.41
2022-10-01T07:00:32.139Z,10.22
2022-10-01T07:01:32.478Z,10.34
2022-10-01T07:02:32.185Z,10.35
2022-10-01T07:03:32.125Z,10.35
2022-10-01T07:04:32.107Z,10.37
2022-10-01T07:05:32.100Z,10.38
2022-10-01T07:06:32.095Z,10.35
2022-10-01T07:07:32.110Z,10.41
2022-10-01T07:08:32.078Z,10.37
2022-10-01T07:09:32.070Z,10.42
2022-10-01T07:10:32.064Z,10.48
2022-10-01T07:11:32.376Z,10.54
2022-10-01T07:12:32.073Z,10.42
2022-10-01T07:13:32.060Z,10.48
2022-10-01T07:14:32.029Z,10.51
2022-10-01T07:15:32.031Z,10.51
2022-10-01T07:16:32.072Z,10.46
2022-10-01T07:17:32.034Z,10.51
2022-10-01T07:18:32.001Z,10.48
2022-10-01T07:19:31.984Z,10.54
2022-10-01T07:20:32.987Z,10.53
2022-10-01T07:21:32.325Z,10.49
2022-10-01T07:22:31.992Z,10.53
2022-10-01T07:23:31.964Z,10.59
2022-10-01T07:24:31.949Z,10.64
2022-10-01T07:25:31.944Z,10.59
2022-10-01T07:26:31.933Z,10.64
2022-10-01T07:27:31.953Z,10.49
2022-10-01T07:28:31.916Z,10.57
2022-10-01T07:29:31.910Z,10.74
2022-10-01T07:30:31.898Z,10.61
2022-10-01T07:31:32.508Z,10.74
2022-10-01T07:32:31.917Z,10.78
2022-10-01T07:33:31.873Z,10.75
2022-10-01T07:34:31.871Z,10.78
2022-10-01T07:35:31.858Z,10.82
2022-10-01T07:36:31.845Z,10.74
2022-10-01T07:37:31.866Z,10.87
2022-10-01T07:38:31.836Z,10.87
2022-10-01T07:39:31.828Z,10.87
2022-10-01T07:40:31.819Z,10.93
2022-10-01T07:41:32.239Z,10.84
2022-10-01T07:42:31.837Z,10.93
2022-10-01T07:43:31.793Z,10.94
2022-10-01T07:44:31.787Z,10.94
2022-10-01T07:45:31.804Z,10.89
2022-10-01T07:46:34.775Z,10.99
2022-10-01T07:47:32.796Z,10.93
2022-10-01T07:48:31.756Z,10.94
2022-10-01T07:49:31.746Z,11.02
2022-10-01T07:50:31.744Z,11.04
2022-10-01T07:51:32.087Z,11.05
2022-10-01T07:52:31.709Z,11.05
2022-10-01T07:53:32.742Z,11.11
2022-10-01T07:54:31.708Z,11.00
2022-10-01T07:55:31.705Z,11.12
2022-10-01T07:56:31.692Z,11.08
2022-10-01T07:57:31.680Z,11.04
2022-10-01T07:58:31.699Z,10.97
2022-10-01T07:59:31.667Z,11.11
2022-10-01T08:00:31.658Z,11.08
2022-10-01T08:01:32.122Z,11.07
2022-10-01T08:02:31.703Z,11.15
2022-10-01T08:03:31.665Z,11.11
2022-10-01T08:04:31.634Z,11.04
2022-10-01T08:05:31.620Z,11.08
2022-10-01T08:06:31.609Z,11.05
2022-10-01T08:07:31.614Z,11.10
2022-10-01T08:08:31.618Z,11.05
2022-10-01T08:09:31.590Z,11.10
2022-10-01T08:10:31.595Z,11.15
2022-10-01T08:11:31.978Z,11.17
2022-10-01T08:12:31.565Z,11.05
2022-10-01T08:13:31.581Z,11.07
2022-10-01T08:14:31.551Z,11.12
2022-10-01T08:15:31.545Z,11.12
2022-10-01T08:16:31.619Z,11.11
2022-10-01T08:17:31.528Z,11.18
2022-10-01T08:18:31.571Z,11.23
2022-10-01T08:19:31.512Z,11.22
2022-10-01T08:20:31.499Z,11.05
2022-10-01T08:21:32.791Z,11.15
2022-10-01T08:22:31.483Z,11.11
2022-10-01T08:23:32.506Z,11.23
2022-10-01T08:24:31.475Z,11.04
2022-10-01T08:25:31.467Z,11.07
2022-10-01T08:26:31.454Z,11.17
2022-10-01T08:27:31.450Z,11.15
2022-10-01T08:28:31.515Z,11.05
2022-10-01T08:29:31.469Z,11.17
2022-10-01T08:30:31.424Z,11.10
2022-10-01T08:31:31.681Z,11.23
2022-10-01T08:32:31.405Z,11.02
2022-10-01T08:33:31.422Z,11.22
2022-10-01T08:34:31.392Z,11.23
2022-10-01T08:35:31.386Z,11.14
2022-10-01T08:36:31.379Z,11.07
2022-10-01T08:37:31.365Z,11.07
2022-10-01T08:38:31.385Z,11.22
2022-10-01T08:39:31.353Z,11.11
2022-10-01T08:40:31.349Z,11.08
2022-10-01T08:41:31.341Z,11.07
2022-10-01T08:42:31.326Z,11.10
2022-10-01T08:43:31.349Z,11.08
2022-10-01T08:44:31.313Z,11.14
2022-10-01T08:45:31.352Z,11.15
2022-10-01T08:46:31.294Z,11.12
2022-10-01T08:47:31.286Z,11.19
2022-10-01T08:48:31.307Z,11.17
2022-10-01T08:49:31.272Z,11.14
2022-10-01T08:50:31.261Z,11.07
2022-10-01T08:51:31.434Z,11.11
2022-10-01T08:52:31.251Z,11.05
2022-10-01T08:53:31.264Z,11.10
2022-10-01T08:54:31.235Z,11.04
2022-10-01T08:55:31.228Z,11.12
2022-10-01T08:56:31.935Z,11.22
2022-10-01T08:57:31.209Z,11.25
2022-10-01T08:58:31.226Z,11.25
2022-10-01T08:59:31.189Z,11.19
2022-10-01T09:00:31.182Z,11.32
2022-10-01T09:01:31.375Z,11.30
2022-10-01T09:02:31.175Z,11.10
2022-10-01T09:03:31.188Z,11.29
2022-10-01T09:04:31.170Z,11.25
2022-10-01T09:05:31.145Z,11.32
2022-10-01T09:06:31.239Z,11.27
2022-10-01T09:07:31.131Z,11.30
2022-10-01T09:08:31.152Z,11.25
2022-10-01T09:09:31.119Z,11.23
2022-10-01T09:10:31.107Z,11.23
2022-10-01T09:11:31.178Z,11.32
2022-10-01T09:12:31.091Z,11.37
2022-10-01T09:13:31.102Z,11.37
2022-10-01T09:14:31.078Z,11.41
2022-10-01T09:15:31.067Z,11.37
2022-10-01T09:16:31.116Z,11.37
2022-10-01T09:17:31.052Z,11.41
2022-10-01T09:18:31.065Z,11.29
2022-10-01T09:19:31.034Z,11.29
2022-10-01T09:20:31.025Z,11.36
2022-10-01T09:21:31.112Z,11.36
2022-10-01T09:22:31.077Z,11.41
2022-10-01T09:23:31.027Z,11.40
2022-10-01T09:24:30.993Z,11.41
2022-10-01T09:25:30.986Z,11.43
2022-10-01T09:26:30.980Z,11.47
2022-10-01T09:27:30.973Z,11.50
2022-10-01T09:28:31.023Z,11.41
2022-10-01T09:29:30.957Z,11.51
2022-10-01T09:30:30.949Z,11.37
2022-10-01T09:31:30.995Z,11.40
2022-10-01T09:32:30.935Z,11.37
2022-10-01T09:33:30.957Z,11.33
2022-10-01T09:34:30.920Z,11.32
2022-10-01T09:35:30.915Z,11.48
2022-10-01T09:36:30.906Z,11.44
2022-10-01T09:37:30.896Z,11.54
2022-10-01T09:38:30.914Z,11.44
2022-10-01T09:39:30.880Z,11.52
2022-10-01T09:40:30.870Z,11.54
2022-10-01T09:41:30.915Z,11.57
2022-10-01T09:42:30.860Z,11.60
2022-10-01T09:43:30.847Z,11.51
2022-10-01T09:44:30.872Z,11.60
2022-10-01T09:45:30.882Z,11.63
2022-10-01T09:46:30.828Z,11.59
2022-10-01T09:47:30.812Z,11.62
2022-10-01T09:48:30.832Z,11.78
2022-10-01T09:49:30.806Z,11.65
2022-10-01T09:50:30.800Z,11.69
2022-10-01T09:51:30.788Z,11.72
2022-10-01T09:52:30.785Z,11.73
2022-10-01T09:53:30.774Z,11.63
2022-10-01T09:54:30.799Z,11.72
2022-10-01T09:55:30.756Z,11.77
2022-10-01T09:56:30.750Z,11.60
2022-10-01T09:57:30.739Z,11.66
2022-10-01T09:58:30.726Z,11.66
2022-10-01T09:59:30.752Z,11.69
2022-10-01T10:00:30.714Z,11.66
2022-10-01T10:01:30.708Z,11.73
2022-10-01T10:02:30.821Z,11.72
2022-10-01T10:03:31.146Z,11.68
2022-10-01T10:04:30.710Z,11.70
2022-10-01T10:05:30.677Z,11.72
2022-10-01T10:06:30.669Z,11.73
2022-10-01T10:07:30.656Z,11.66
2022-10-01T10:08:30.648Z,11.70
2022-10-01T10:09:30.664Z,11.69
2022-10-01T10:10:30.645Z,11.75
2022-10-01T10:11:30.912Z,11.65
2022-10-01T10:12:30.630Z,11.80
2022-10-01T10:13:30.603Z,11.70
2022-10-01T10:14:30.634Z,11.63
2022-10-01T10:15:30.589Z,11.65
2022-10-01T10:16:30.579Z,11.72
2022-10-01T10:17:30.571Z,11.84
2022-10-01T10:18:30.586Z,11.88
2022-10-01T10:19:30.583Z,11.78
2022-10-01T10:20:30.564Z,11.83
2022-10-01T10:21:30.543Z,11.90
2022-10-01T10:22:30.536Z,11.94
2022-10-01T10:23:30.547Z,11.91
2022-10-01T10:24:30.554Z,12.03
2022-10-01T10:25:30.511Z,11.99
2022-10-01T10:26:30.501Z,12.03
2022-10-01T10:27:31.575Z,11.97
2022-10-01T10:28:30.595Z,12.00
2022-10-01T10:29:30.559Z,12.04
2022-10-01T10:30:30.470Z,12.02
2022-10-01T10:31:30.497Z,11.94
2022-10-01T10:32:30.454Z,12.02
2022-10-01T10:33:30.466Z,12.03
2022-10-01T10:34:30.468Z,12.07
2022-10-01T10:35:30.426Z,12.07
2022-10-01T10:36:30.432Z,12.21
2022-10-01T10:37:30.419Z,12.24
2022-10-01T10:38:30.409Z,12.24
2022-10-01T10:39:30.445Z,12.29
2022-10-01T10:40:30.402Z,12.27
2022-10-01T10:41:30.401Z,12.27
2022-10-01T10:42:30.373Z,12.37
2022-10-01T10:43:30.374Z,12.35
2022-10-01T10:44:30.388Z,12.50
2022-10-01T10:45:30.355Z,12.61
2022-10-01T10:46:30.407Z,12.65
2022-10-01T10:47:30.341Z,12.68
2022-10-01T10:48:30.327Z,12.76
2022-10-01T10:49:30.347Z,12.93
2022-10-01T10:50:30.320Z,13.00
2022-10-01T10:51:30.299Z,12.97
2022-10-01T10:52:30.341Z,13.01
2022-10-01T10:53:30.291Z,12.98
2022-10-01T10:54:30.310Z,13.03
2022-10-01T10:55:30.290Z,12.87
2022-10-01T10:56:30.267Z,12.86
2022-10-01T10:57:31.259Z,12.83
2022-10-01T10:58:30.258Z,12.85
2022-10-01T10:59:30.282Z,12.85
2022-10-01T11:00:30.236Z,12.91
2022-10-01T11:01:30.271Z,12.91
2022-10-01T11:02:30.321Z,12.94
2022-10-01T11:03:30.210Z,13.12
2022-10-01T11:04:30.229Z,13.16
2022-10-01T11:05:30.188Z,13.28
2022-10-01T11:06:30.189Z,13.25
2022-10-01T11:07:30.178Z,13.31
2022-10-01T11:08:30.171Z,13.22
2022-10-01T11:09:30.163Z,13.25
2022-10-01T11:10:30.184Z,13.04
2022-10-01T11:11:30.146Z,13.09
2022-10-01T11:12:30.142Z,13.25
2022-10-01T11:13:30.131Z,13.27
2022-10-01T11:14:30.120Z,13.30
2022-10-01T11:15:30.150Z,13.13
2022-10-01T11:16:30.113Z,13.23
2022-10-01T11:17:30.099Z,13.28
2022-10-01T11:18:30.092Z,13.16
2022-10-01T11:19:30.109Z,13.11
2022-10-01T11:20:30.080Z,13.25
2022-10-01T11:21:30.070Z,13.31
2022-10-01T11:22:30.056Z,13.31
2022-10-01T11:23:30.058Z,13.33
2022-10-01T11:24:30.077Z,13.37
2022-10-01T11:25:30.036Z,13.25
2022-10-01T11:26:30.022Z,13.27
2022-10-01T11:27:30.014Z,13.25
2022-10-01T11:28:30.067Z,13.35
2022-10-01T11:29:30.038Z,13.31
2022-10-01T11:30:29.992Z,13.28
2022-10-01T11:31:29.983Z,13.33
2022-10-01T11:32:29.972Z,13.30
2022-10-01T11:33:29.968Z,13.39
2022-10-01T11:34:29.962Z,13.38
2022-10-01T11:35:29.976Z,13.41
2022-10-01T11:36:29.936Z,13.44
2022-10-01T11:37:29.931Z,13.35
2022-10-01T11:38:29.925Z,13.42
2022-10-01T11:39:29.917Z,13.33
2022-10-01T11:40:29.939Z,13.27
2022-10-01T11:41:29.905Z,13.31
2022-10-01T11:42:29.894Z,13.25
2022-10-01T11:43:30.891Z,13.37
2022-10-01T11:44:29.890Z,13.20
2022-10-01T11:45:29.895Z,13.28
2022-10-01T11:46:30.884Z,13.28
2022-10-01T11:47:29.858Z,13.28
2022-10-01T11:48:29.927Z,13.31
2022-10-01T11:49:29.846Z,13.28
2022-10-01T11:50:29.858Z,13.30
2022-10-01T11:51:29.823Z,13.41
2022-10-01T11:52:29.818Z,13.44
2022-10-01T11:53:29.815Z,13.46
2022-10-01T11:54:29.798Z,13.42
2022-10-01T11:55:29.816Z,13.47
2022-10-01T11:56:29.804Z,13.44
2022-10-01T11:57:29.773Z,13.46
2022-10-01T11:58:29.771Z,13.49
2022-10-01T11:59:29.758Z,13.59
2022-10-01T12:00:29.775Z,13.60
2022-10-01T12:01:29.744Z,13.60
2022-10-01T12:02:29.731Z,13.49
2022-10-01T12:03:29.731Z,13.62
2022-10-01T12:04:29.718Z,13.63
2022-10-01T12:05:29.750Z,13.71
2022-10-01T12:06:33.798Z,13.56
2022-10-01T12:07:30.692Z,13.53
2022-10-01T12:08:29.680Z,13.44
2022-10-01T12:09:29.682Z,13.38
2022-10-01T12:10:29.690Z,13.41
2022-10-01T12:11:29.657Z,13.47
2022-10-01T12:12:29.650Z,13.68
2022-10-01T12:13:29.642Z,13.68
2022-10-01T12:14:29.636Z,13.75
2022-10-01T12:15:29.652Z,13.83
2022-10-01T12:16:29.753Z,13.90
2022-10-01T12:17:29.609Z,13.87
2022-10-01T12:18:29.682Z,13.87
2022-10-01T12:19:29.620Z,13.93
2022-10-01T12:20:29.585Z,14.05
2022-10-01T12:21:29.572Z,14.08
2022-10-01T12:22:29.571Z,14.03
2022-10-01T12:23:29.560Z,14.10
2022-10-01T12:24:29.573Z,14.07
2022-10-01T12:25:29.545Z,13.99
2022-10-01T12:26:29.537Z,13.96
2022-10-01T12:27:29.527Z,13.83
2022-10-01T12:28:29.603Z,13.77
2022-10-01T12:29:29.546Z,13.85
2022-10-01T12:30:29.504Z,13.74
2022-10-01T12:31:29.537Z,13.62
2022-10-01T12:32:29.489Z,13.68
2022-10-01T12:33:29.481Z,13.68
2022-10-01T12:34:29.500Z,13.68
2022-10-01T12:35:29.469Z,13.70
2022-10-01T12:36:29.456Z,13.71
2022-10-01T12:37:29.450Z,13.65
2022-10-01T12:38:29.487Z,13.53
2022-10-01T12:39:29.455Z,13.63
2022-10-01T12:40:29.456Z,13.63
2022-10-01T12:41:29.417Z,13.57
2022-10-01T12:42:29.413Z,13.65
2022-10-01T12:43:29.405Z,13.67
2022-10-01T12:44:29.395Z,13.72
2022-10-01T12:45:29.419Z,13.70
2022-10-01T12:46:29.436Z,13.70
2022-10-01T12:47:29.388Z,13.81
2022-10-01T12:48:29.367Z,13.75
2022-10-01T12:49:29.354Z,13.90
2022-10-01T12:50:29.374Z,13.95
2022-10-01T12:51:29.340Z,14.04
2022-10-01T12:52:29.335Z,14.00
2022-10-01T12:53:29.325Z,14.10
2022-10-01T12:54:29.309Z,14.15
2022-10-01T12:55:29.344Z,14.25
2022-10-01T12:56:29.302Z,14.25
2022-10-01T12:57:29.293Z,14.28
2022-10-01T12:58:29.288Z,14.28
2022-10-01T12:59:29.339Z,14.29
2022-10-01T13:00:29.301Z,14.22
2022-10-01T13:01:29.273Z,14.15